sensor_id;sensor_type;location;lat;lon;timestamp;temperature;humidity
35894;DHT22;21994;48.204;16.516;2023-09-19T00:00:20;19.50;99.90
35894;DHT22;21994;48.204;16.516;2023-09-19T00:02:56;19.40;99.90
35894;DHT22;21994;48.204;16.516;2023-09-19T00:05:25;19.40;99.90
35894;DHT22;21994;48.204;16.516;2023-09-19T00:07:54;19.30;99.90
35894;DHT22;21994;48.204;16.516;2023-09-19T00:10:24;19.30;99.90
35894;DHT22;21994;48.204;16.516;2023-09-19T00:12:54;19.30;99.90
35894;DHT22;21994;48.204;16.516;2023-09-19T00:15:23;19.30;99.90
35894;DHT22;21994;48.204;16.516;2023-09-19T00:17:51;19.30;99.90
35894;DHT22;21994;48.204;16.516;2023-09-19T00:20:18;19.30;99.90
35894;DHT22;21994;48.204;16.516;2023-09-19T00:22:44;19.30;99.90
35894;DHT22;21994;48.204;16.516;2023-09-19T00:25:10;19.10;99.90
35894;DHT22;21994;48.204;16.516;2023-09-19T00:27:40;19.10;99.90
35894;DHT22;21994;48.204;16.516;2023-09-19T00:30:08;18.90;99.90
35894;DHT22;21994;48.204;16.516;2023-09-19T00:32:42;18.70;99.90
35894;DHT22;21994;48.204;16.516;2023-09-19T00:35:08;18.50;99.90
35894;DHT22;21994;48.204;16.516;2023-09-19T00:37:37;18.40;99.90
35894;DHT22;21994;48.204;16.516;2023-09-19T00:40:05;18.30;99.90
35894;DHT22;21994;48.204;16.516;2023-09-19T00:42:38;18.10;99.90
35894;DHT22;21994;48.204;16.516;2023-09-19T00:45:05;18.00;99.90
35894;DHT22;21994;48.204;16.516;2023-09-19T00:47:43;17.90;99.90
35894;DHT22;21994;48.204;16.516;2023-09-19T00:50:11;17.90;99.90
35894;DHT22;21994;48.204;16.516;2023-09-19T00:52:40;17.80;99.90
35894;DHT22;21994;48.204;16.516;2023-09-19T00:55:08;17.70;99.90
35894;DHT22;21994;48.204;16.516;2023-09-19T00:57:35;17.60;99.90
35894;DHT22;21994;48.204;16.516;2023-09-19T01:00:02;17.50;99.90
35894;DHT22;21994;48.204;16.516;2023-09-19T01:02:33;17.50;99.90
35894;DHT22;21994;48.204;16.516;2023-09-19T01:04:59;17.40;99.90
35894;DHT22;21994;48.204;16.516;2023-09-19T01:07:29;17.40;99.90
35894;DHT22;21994;48.204;16.516;2023-09-19T01:09:56;17.40;99.90
35894;DHT22;21994;48.204;16.516;2023-09-19T01:18:24;17.30;99.90
35894;DHT22;21994;48.204;16.516;2023-09-19T01:29:39;17.30;99.90
35894;DHT22;21994;48.204;16.516;2023-09-19T01:32:10;17.30;99.90
35894;DHT22;21994;48.204;16.516;2023-09-19T01:34:48;17.30;99.90
35894;DHT22;21994;48.204;16.516;2023-09-19T01:37:16;17.30;99.90
35894;DHT22;21994;48.204;16.516;2023-09-19T01:39:48;17.30;99.90
35894;DHT22;21994;48.204;16.516;2023-09-19T01:42:31;17.20;99.90
35894;DHT22;21994;48.204;16.516;2023-09-19T01:47:54;17.10;99.90
35894;DHT22;21994;48.204;16.516;2023-09-19T01:50:32;17.00;99.90
35894;DHT22;21994;48.204;16.516;2023-09-19T01:53:17;16.90;99.90
35894;DHT22;21994;48.204;16.516;2023-09-19T01:55:49;16.80;99.90
35894;DHT22;21994;48.204;16.516;2023-09-19T01:58:21;16.80;99.90
35894;DHT22;21994;48.204;16.516;2023-09-19T02:00:53;16.70;99.90
35894;DHT22;21994;48.204;16.516;2023-09-19T02:03:21;16.60;99.90
35894;DHT22;21994;48.204;16.516;2023-09-19T02:05:48;16.60;99.90
35894;DHT22;21994;48.204;16.516;2023-09-19T02:08:19;16.50;99.90
35894;DHT22;21994;48.204;16.516;2023-09-19T02:10:45;16.50;99.90
35894;DHT22;21994;48.204;16.516;2023-09-19T02:13:17;16.50;99.90
35894;DHT22;21994;48.204;16.516;2023-09-19T02:15:44;16.50;99.90
35894;DHT22;21994;48.204;16.516;2023-09-19T02:18:10;16.50;99.90
35894;DHT22;21994;48.204;16.516;2023-09-19T02:20:40;16.40;99.90
35894;DHT22;21994;48.204;16.516;2023-09-19T02:23:06;16.40;99.90
35894;DHT22;21994;48.204;16.516;2023-09-19T02:25:33;16.40;99.90
35894;DHT22;21994;48.204;16.516;2023-09-19T02:27:59;16.30;99.90
35894;DHT22;21994;48.204;16.516;2023-09-19T02:30:26;16.30;99.90
35894;DHT22;21994;48.204;16.516;2023-09-19T02:32:52;16.30;99.90
35894;DHT22;21994;48.204;16.516;2023-09-19T02:35:18;16.30;99.90
35894;DHT22;21994;48.204;16.516;2023-09-19T02:37:52;16.30;99.90
35894;DHT22;21994;48.204;16.516;2023-09-19T02:40:18;16.30;99.90
35894;DHT22;21994;48.204;16.516;2023-09-19T02:42:46;16.30;99.90
35894;DHT22;21994;48.204;16.516;2023-09-19T02:45:17;16.30;99.90
35894;DHT22;21994;48.204;16.516;2023-09-19T02:47:44;16.30;99.90
35894;DHT22;21994;48.204;16.516;2023-09-19T02:50:11;16.40;99.90
35894;DHT22;21994;48.204;16.516;2023-09-19T02:52:38;16.30;99.90
35894;DHT22;21994;48.204;16.516;2023-09-19T02:55:03;16.30;99.90
35894;DHT22;21994;48.204;16.516;2023-09-19T02:57:31;16.30;99.90
35894;DHT22;21994;48.204;16.516;2023-09-19T02:59:58;16.30;99.90
35894;DHT22;21994;48.204;16.516;2023-09-19T03:02:25;16.30;99.90
35894;DHT22;21994;48.204;16.516;2023-09-19T03:04:52;16.30;99.90
35894;DHT22;21994;48.204;16.516;2023-09-19T03:07:18;16.30;99.90
35894;DHT22;21994;48.204;16.516;2023-09-19T03:09:44;16.40;99.90
35894;DHT22;21994;48.204;16.516;2023-09-19T03:12:10;16.40;99.90
35894;DHT22;21994;48.204;16.516;2023-09-19T03:14:36;16.40;99.90
35894;DHT22;21994;48.204;16.516;2023-09-19T03:17:02;16.40;99.90
35894;DHT22;21994;48.204;16.516;2023-09-19T03:19:31;16.40;99.90
35894;DHT22;21994;48.204;16.516;2023-09-19T03:21:59;16.40;99.90
35894;DHT22;21994;48.204;16.516;2023-09-19T03:24:25;16.40;99.90
35894;DHT22;21994;48.204;16.516;2023-09-19T03:26:51;16.50;99.90
35894;DHT22;21994;48.204;16.516;2023-09-19T03:29:17;16.50;99.90
35894;DHT22;21994;48.204;16.516;2023-09-19T03:31:43;16.50;99.90
35894;DHT22;21994;48.204;16.516;2023-09-19T03:34:09;16.60;99.90
35894;DHT22;21994;48.204;16.516;2023-09-19T03:36:35;16.60;99.90
35894;DHT22;21994;48.204;16.516;2023-09-19T03:39:01;16.70;99.90
35894;DHT22;21994;48.204;16.516;2023-09-19T03:41:30;16.70;99.90
35894;DHT22;21994;48.204;16.516;2023-09-19T03:43:57;16.70;99.90
35894;DHT22;21994;48.204;16.516;2023-09-19T03:46:22;16.70;99.90
35894;DHT22;21994;48.204;16.516;2023-09-19T03:48:48;16.80;99.90
35894;DHT22;21994;48.204;16.516;2023-09-19T03:51:14;16.80;99.90
35894;DHT22;21994;48.204;16.516;2023-09-19T03:53:39;16.80;99.90
35894;DHT22;21994;48.204;16.516;2023-09-19T03:56:05;16.80;99.90
35894;DHT22;21994;48.204;16.516;2023-09-19T03:58:31;16.80;99.90
35894;DHT22;21994;48.204;16.516;2023-09-19T04:00:57;16.90;99.90
35894;DHT22;21994;48.204;16.516;2023-09-19T04:03:23;16.90;99.90
35894;DHT22;21994;48.204;16.516;2023-09-19T04:05:54;16.90;99.90
35894;DHT22;21994;48.204;16.516;2023-09-19T04:08:19;17.00;99.90
35894;DHT22;21994;48.204;16.516;2023-09-19T04:10:45;16.90;99.90
35894;DHT22;21994;48.204;16.516;2023-09-19T04:13:11;17.00;99.90
35894;DHT22;21994;48.204;16.516;2023-09-19T04:15:37;17.00;99.90
35894;DHT22;21994;48.204;16.516;2023-09-19T04:18:03;17.00;99.90
35894;DHT22;21994;48.204;16.516;2023-09-19T04:20:29;17.10;99.90
35894;DHT22;21994;48.204;16.516;2023-09-19T04:22:54;17.20;99.90
35894;DHT22;21994;48.204;16.516;2023-09-19T04:25:20;17.20;99.90
35894;DHT22;21994;48.204;16.516;2023-09-19T04:27:46;17.20;99.90
35894;DHT22;21994;48.204;16.516;2023-09-19T04:30:13;17.30;99.90
35894;DHT22;21994;48.204;16.516;2023-09-19T04:32:40;17.30;99.90
35894;DHT22;21994;48.204;16.516;2023-09-19T04:35:10;17.30;99.90
35894;DHT22;21994;48.204;16.516;2023-09-19T04:37:37;17.40;99.90
35894;DHT22;21994;48.204;16.516;2023-09-19T04:40:04;17.50;99.90
35894;DHT22;21994;48.204;16.516;2023-09-19T04:42:53;17.60;99.90
35894;DHT22;21994;48.204;16.516;2023-09-19T04:45:23;17.60;99.90
35894;DHT22;21994;48.204;16.516;2023-09-19T04:47:49;17.60;99.90
35894;DHT22;21994;48.204;16.516;2023-09-19T04:50:14;17.60;99.90
35894;DHT22;21994;48.204;16.516;2023-09-19T04:52:42;17.60;99.90
35894;DHT22;21994;48.204;16.516;2023-09-19T04:55:16;17.50;99.90
35894;DHT22;21994;48.204;16.516;2023-09-19T04:57:43;17.60;99.90
35894;DHT22;21994;48.204;16.516;2023-09-19T05:00:16;17.50;99.90
35894;DHT22;21994;48.204;16.516;2023-09-19T05:02:50;17.50;99.90
35894;DHT22;21994;48.204;16.516;2023-09-19T05:05:20;17.40;99.90
35894;DHT22;21994;48.204;16.516;2023-09-19T05:08:06;17.40;99.90
35894;DHT22;21994;48.204;16.516;2023-09-19T05:10:37;17.30;99.90
35894;DHT22;21994;48.204;16.516;2023-09-19T05:13:03;17.30;99.90
35894;DHT22;21994;48.204;16.516;2023-09-19T05:15:30;17.30;99.90
35894;DHT22;21994;48.204;16.516;2023-09-19T05:17:56;17.30;99.90
35894;DHT22;21994;48.204;16.516;2023-09-19T05:20:22;17.30;99.90
35894;DHT22;21994;48.204;16.516;2023-09-19T05:25:31;17.40;99.90
35894;DHT22;21994;48.204;16.516;2023-09-19T05:28:08;17.30;99.90
35894;DHT22;21994;48.204;16.516;2023-09-19T05:30:36;17.30;99.90
35894;DHT22;21994;48.204;16.516;2023-09-19T05:33:02;17.30;99.90
35894;DHT22;21994;48.204;16.516;2023-09-19T05:35:29;17.30;99.90
35894;DHT22;21994;48.204;16.516;2023-09-19T05:37:56;17.30;99.90
35894;DHT22;21994;48.204;16.516;2023-09-19T05:40:23;17.30;99.90
35894;DHT22;21994;48.204;16.516;2023-09-19T05:42:50;17.30;99.90
35894;DHT22;21994;48.204;16.516;2023-09-19T05:45:16;17.30;99.90
35894;DHT22;21994;48.204;16.516;2023-09-19T05:47:47;17.20;99.90
35894;DHT22;21994;48.204;16.516;2023-09-19T05:50:15;17.20;99.90
35894;DHT22;21994;48.204;16.516;2023-09-19T05:52:42;17.10;99.90
35894;DHT22;21994;48.204;16.516;2023-09-19T05:55:09;17.10;99.90
35894;DHT22;21994;48.204;16.516;2023-09-19T05:57:36;17.10;99.90
35894;DHT22;21994;48.204;16.516;2023-09-19T06:00:05;17.00;99.90
35894;DHT22;21994;48.204;16.516;2023-09-19T06:02:36;17.00;99.90
35894;DHT22;21994;48.204;16.516;2023-09-19T06:05:05;17.00;99.90
35894;DHT22;21994;48.204;16.516;2023-09-19T06:07:32;16.90;99.90
35894;DHT22;21994;48.204;16.516;2023-09-19T06:10:05;17.00;99.90
35894;DHT22;21994;48.204;16.516;2023-09-19T06:12:31;17.00;99.90
35894;DHT22;21994;48.204;16.516;2023-09-19T06:14:59;17.00;99.90
35894;DHT22;21994;48.204;16.516;2023-09-19T06:17:25;17.00;99.90
35894;DHT22;21994;48.204;16.516;2023-09-19T06:19:52;17.10;99.90
35894;DHT22;21994;48.204;16.516;2023-09-19T06:22:18;17.20;99.90
35894;DHT22;21994;48.204;16.516;2023-09-19T06:24:44;17.10;99.90
35894;DHT22;21994;48.204;16.516;2023-09-19T06:27:10;17.10;99.90
35894;DHT22;21994;48.204;16.516;2023-09-19T06:29:36;17.10;99.90
35894;DHT22;21994;48.204;16.516;2023-09-19T06:32:07;17.20;99.90
35894;DHT22;21994;48.204;16.516;2023-09-19T06:34:35;17.30;99.90
35894;DHT22;21994;48.204;16.516;2023-09-19T06:37:02;17.40;99.90
35894;DHT22;21994;48.204;16.516;2023-09-19T06:39:28;17.50;99.90
35894;DHT22;21994;48.204;16.516;2023-09-19T06:41:54;17.60;99.90
35894;DHT22;21994;48.204;16.516;2023-09-19T06:44:20;17.70;99.90
35894;DHT22;21994;48.204;16.516;2023-09-19T06:46:50;17.80;99.90
35894;DHT22;21994;48.204;16.516;2023-09-19T06:49:17;17.90;99.90
35894;DHT22;21994;48.204;16.516;2023-09-19T06:51:43;18.10;99.90
35894;DHT22;21994;48.204;16.516;2023-09-19T06:54:10;18.20;99.90
35894;DHT22;21994;48.204;16.516;2023-09-19T06:56:36;18.30;99.90
35894;DHT22;21994;48.204;16.516;2023-09-19T06:59:02;18.40;99.90
35894;DHT22;21994;48.204;16.516;2023-09-19T07:01:31;18.40;99.90
35894;DHT22;21994;48.204;16.516;2023-09-19T07:03:57;18.50;99.90
35894;DHT22;21994;48.204;16.516;2023-09-19T07:06:23;18.50;99.90
35894;DHT22;21994;48.204;16.516;2023-09-19T07:08:49;18.50;99.90
35894;DHT22;21994;48.204;16.516;2023-09-19T07:11:15;18.50;99.90
35894;DHT22;21994;48.204;16.516;2023-09-19T07:13:42;18.50;99.90
35894;DHT22;21994;48.204;16.516;2023-09-19T07:16:09;18.60;99.90
35894;DHT22;21994;48.204;16.516;2023-09-19T07:18:52;18.80;99.90
35894;DHT22;21994;48.204;16.516;2023-09-19T07:21:20;18.90;99.90
35894;DHT22;21994;48.204;16.516;2023-09-19T07:23:47;19.10;99.90
35894;DHT22;21994;48.204;16.516;2023-09-19T07:26:13;19.20;99.90
35894;DHT22;21994;48.204;16.516;2023-09-19T07:28:38;19.20;99.90
35894;DHT22;21994;48.204;16.516;2023-09-19T07:31:04;19.10;99.90
35894;DHT22;21994;48.204;16.516;2023-09-19T07:33:30;19.00;99.90
35894;DHT22;21994;48.204;16.516;2023-09-19T07:36:06;19.00;99.90
35894;DHT22;21994;48.204;16.516;2023-09-19T07:38:36;18.90;99.90
35894;DHT22;21994;48.204;16.516;2023-09-19T07:41:04;18.90;99.90
35894;DHT22;21994;48.204;16.516;2023-09-19T07:43:30;18.90;99.90
35894;DHT22;21994;48.204;16.516;2023-09-19T07:45:57;18.90;99.90
35894;DHT22;21994;48.204;16.516;2023-09-19T07:48:23;18.90;99.90
35894;DHT22;21994;48.204;16.516;2023-09-19T07:50:49;18.80;99.90
35894;DHT22;21994;48.204;16.516;2023-09-19T07:53:15;18.80;99.90
35894;DHT22;21994;48.204;16.516;2023-09-19T07:55:43;18.80;99.90
35894;DHT22;21994;48.204;16.516;2023-09-19T07:58:09;18.80;99.90
35894;DHT22;21994;48.204;16.516;2023-09-19T08:00:34;18.80;99.90
35894;DHT22;21994;48.204;16.516;2023-09-19T08:03:00;18.90;99.90
35894;DHT22;21994;48.204;16.516;2023-09-19T08:05:27;18.90;99.90
35894;DHT22;21994;48.204;16.516;2023-09-19T08:07:53;18.80;99.90
35894;DHT22;21994;48.204;16.516;2023-09-19T08:10:21;19.00;99.90
35894;DHT22;21994;48.204;16.516;2023-09-19T08:12:47;19.00;99.90
35894;DHT22;21994;48.204;16.516;2023-09-19T08:15:18;19.10;99.90
35894;DHT22;21994;48.204;16.516;2023-09-19T08:17:45;19.10;99.90
35894;DHT22;21994;48.204;16.516;2023-09-19T08:20:11;19.00;99.90
35894;DHT22;21994;48.204;16.516;2023-09-19T08:22:46;19.00;99.90
35894;DHT22;21994;48.204;16.516;2023-09-19T08:25:14;19.00;99.90
35894;DHT22;21994;48.204;16.516;2023-09-19T08:27:47;19.00;99.90
35894;DHT22;21994;48.204;16.516;2023-09-19T08:30:15;19.10;99.90
35894;DHT22;21994;48.204;16.516;2023-09-19T08:32:50;19.10;99.90
35894;DHT22;21994;48.204;16.516;2023-09-19T08:35:16;19.20;99.90
35894;DHT22;21994;48.204;16.516;2023-09-19T08:37:42;19.30;99.90
35894;DHT22;21994;48.204;16.516;2023-09-19T08:40:10;19.40;99.90
35894;DHT22;21994;48.204;16.516;2023-09-19T08:45:15;19.90;99.90
35894;DHT22;21994;48.204;16.516;2023-09-19T08:47:45;20.20;99.90
35894;DHT22;21994;48.204;16.516;2023-09-19T08:50:17;20.30;99.90
35894;DHT22;21994;48.204;16.516;2023-09-19T08:52:46;20.50;99.90
35894;DHT22;21994;48.204;16.516;2023-09-19T08:55:15;20.60;99.90
35894;DHT22;21994;48.204;16.516;2023-09-19T08:57:48;20.60;99.90
35894;DHT22;21994;48.204;16.516;2023-09-19T09:00:15;20.60;99.90
35894;DHT22;21994;48.204;16.516;2023-09-19T09:02:43;20.40;99.90
35894;DHT22;21994;48.204;16.516;2023-09-19T09:05:10;20.30;99.90
35894;DHT22;21994;48.204;16.516;2023-09-19T09:07:37;20.20;99.90
35894;DHT22;21994;48.204;16.516;2023-09-19T09:10:03;20.10;99.90
35894;DHT22;21994;48.204;16.516;2023-09-19T09:12:29;20.00;99.90
35894;DHT22;21994;48.204;16.516;2023-09-19T09:14:55;19.90;99.90
35894;DHT22;21994;48.204;16.516;2023-09-19T09:17:22;19.80;99.90
35894;DHT22;21994;48.204;16.516;2023-09-19T09:19:53;19.90;99.90
35894;DHT22;21994;48.204;16.516;2023-09-19T09:22:19;19.80;99.90
35894;DHT22;21994;48.204;16.516;2023-09-19T09:24:53;19.90;99.90
35894;DHT22;21994;48.204;16.516;2023-09-19T09:27:19;19.90;99.90
35894;DHT22;21994;48.204;16.516;2023-09-19T09:29:47;19.90;99.90
35894;DHT22;21994;48.204;16.516;2023-09-19T09:32:17;19.90;99.90
35894;DHT22;21994;48.204;16.516;2023-09-19T09:34:55;19.90;99.90
35894;DHT22;21994;48.204;16.516;2023-09-19T09:37:22;19.90;99.90
35894;DHT22;21994;48.204;16.516;2023-09-19T09:40:00;19.80;99.90
35894;DHT22;21994;48.204;16.516;2023-09-19T09:42:42;19.80;99.90
35894;DHT22;21994;48.204;16.516;2023-09-19T09:45:12;19.80;99.90
35894;DHT22;21994;48.204;16.516;2023-09-19T09:47:42;19.80;99.90
35894;DHT22;21994;48.204;16.516;2023-09-19T09:50:25;19.90;99.90
35894;DHT22;21994;48.204;16.516;2023-09-19T09:53:23;20.00;99.90
35894;DHT22;21994;48.204;16.516;2023-09-19T09:58:32;20.20;99.90
35894;DHT22;21994;48.204;16.516;2023-09-19T10:01:02;20.40;99.90
35894;DHT22;21994;48.204;16.516;2023-09-19T10:03:37;20.60;99.90
35894;DHT22;21994;48.204;16.516;2023-09-19T10:06:09;21.00;99.90
35894;DHT22;21994;48.204;16.516;2023-09-19T10:08:57;21.60;99.90
35894;DHT22;21994;48.204;16.516;2023-09-19T10:14:13;24.90;99.90
35894;DHT22;21994;48.204;16.516;2023-09-19T10:16:50;26.00;99.90
35894;DHT22;21994;48.204;16.516;2023-09-19T10:19:20;26.30;99.90
35894;DHT22;21994;48.204;16.516;2023-09-19T10:21:50;26.40;99.90
35894;DHT22;21994;48.204;16.516;2023-09-19T10:24:16;26.50;98.80
35894;DHT22;21994;48.204;16.516;2023-09-19T10:26:43;26.70;98.60
35894;DHT22;21994;48.204;16.516;2023-09-19T10:29:11;26.30;99.10
35894;DHT22;21994;48.204;16.516;2023-09-19T10:31:39;26.30;99.20
35894;DHT22;21994;48.204;16.516;2023-09-19T10:34:14;26.00;98.60
35894;DHT22;21994;48.204;16.516;2023-09-19T10:36:40;25.70;99.90
35894;DHT22;21994;48.204;16.516;2023-09-19T10:39:10;25.90;99.90
35894;DHT22;21994;48.204;16.516;2023-09-19T10:41:37;26.60;98.60
35894;DHT22;21994;48.204;16.516;2023-09-19T10:44:04;27.10;97.70
35894;DHT22;21994;48.204;16.516;2023-09-19T10:46:33;27.50;96.50
35894;DHT22;21994;48.204;16.516;2023-09-19T10:48:59;27.50;98.10
35894;DHT22;21994;48.204;16.516;2023-09-19T10:51:26;27.50;96.70
35894;DHT22;21994;48.204;16.516;2023-09-19T10:54:10;27.80;95.90
35894;DHT22;21994;48.204;16.516;2023-09-19T10:56:46;27.50;97.00
35894;DHT22;21994;48.204;16.516;2023-09-19T10:59:15;28.00;95.80
35894;DHT22;21994;48.204;16.516;2023-09-19T11:01:44;28.30;95.60
35894;DHT22;21994;48.204;16.516;2023-09-19T11:06:59;27.60;95.90
35894;DHT22;21994;48.204;16.516;2023-09-19T11:09:45;27.50;95.60
35894;DHT22;21994;48.204;16.516;2023-09-19T11:12:26;28.00;95.70
35894;DHT22;21994;48.204;16.516;2023-09-19T11:15:01;27.60;95.40
35894;DHT22;21994;48.204;16.516;2023-09-19T11:17:33;27.20;96.50
35894;DHT22;21994;48.204;16.516;2023-09-19T11:30:52;25.90;97.60
35894;DHT22;21994;48.204;16.516;2023-09-19T11:33:23;25.70;96.90
35894;DHT22;21994;48.204;16.516;2023-09-19T11:43:48;24.80;99.80
35894;DHT22;21994;48.204;16.516;2023-09-19T11:46:15;24.60;99.90
35894;DHT22;21994;48.204;16.516;2023-09-19T11:48:47;24.40;99.90
35894;DHT22;21994;48.204;16.516;2023-09-19T11:51:16;24.20;99.90
35894;DHT22;21994;48.204;16.516;2023-09-19T11:53:52;24.10;99.90
35894;DHT22;21994;48.204;16.516;2023-09-19T11:56:23;24.00;99.90
35894;DHT22;21994;48.204;16.516;2023-09-19T11:58:52;23.80;99.90
35894;DHT22;21994;48.204;16.516;2023-09-19T12:01:25;23.70;99.90
35894;DHT22;21994;48.204;16.516;2023-09-19T12:03:56;23.80;99.90
35894;DHT22;21994;48.204;16.516;2023-09-19T12:06:26;23.90;99.90
35894;DHT22;21994;48.204;16.516;2023-09-19T12:08:54;23.90;99.90
35894;DHT22;21994;48.204;16.516;2023-09-19T12:11:22;24.00;99.90
35894;DHT22;21994;48.204;16.516;2023-09-19T12:13:49;24.20;99.90
35894;DHT22;21994;48.204;16.516;2023-09-19T12:16:15;24.20;99.90
35894;DHT22;21994;48.204;16.516;2023-09-19T12:18:42;24.20;99.90
35894;DHT22;21994;48.204;16.516;2023-09-19T12:24:11;24.40;99.90
35894;DHT22;21994;48.204;16.516;2023-09-19T12:26:39;25.00;99.90
35894;DHT22;21994;48.204;16.516;2023-09-19T12:29:15;25.50;99.90
35894;DHT22;21994;48.204;16.516;2023-09-19T12:31:58;26.00;98.90
35894;DHT22;21994;48.204;16.516;2023-09-19T12:34:29;26.40;99.90
35894;DHT22;21994;48.204;16.516;2023-09-19T12:39:44;27.10;97.40
35894;DHT22;21994;48.204;16.516;2023-09-19T12:42:26;27.00;98.00
35894;DHT22;21994;48.204;16.516;2023-09-19T12:45:00;27.20;96.50
35894;DHT22;21994;48.204;16.516;2023-09-19T12:47:27;27.20;97.90
35894;DHT22;21994;48.204;16.516;2023-09-19T12:50:12;27.00;98.10
35894;DHT22;21994;48.204;16.516;2023-09-19T12:52:44;27.40;97.10
35894;DHT22;21994;48.204;16.516;2023-09-19T13:00:31;26.30;96.80
35894;DHT22;21994;48.204;16.516;2023-09-19T13:06:00;26.00;98.30
35894;DHT22;21994;48.204;16.516;2023-09-19T13:08:28;25.90;98.00
35894;DHT22;21994;48.204;16.516;2023-09-19T13:11:10;25.60;98.40
35894;DHT22;21994;48.204;16.516;2023-09-19T13:17:00;24.90;99.00
35894;DHT22;21994;48.204;16.516;2023-09-19T13:19:41;24.70;98.60
35894;DHT22;21994;48.204;16.516;2023-09-19T13:22:35;24.00;99.80
35894;DHT22;21994;48.204;16.516;2023-09-19T13:25:08;23.60;99.90
35894;DHT22;21994;48.204;16.516;2023-09-19T13:27:45;23.20;99.90
35894;DHT22;21994;48.204;16.516;2023-09-19T13:30:16;23.20;99.90
35894;DHT22;21994;48.204;16.516;2023-09-19T13:32:43;23.10;99.90
35894;DHT22;21994;48.204;16.516;2023-09-19T13:35:09;23.10;99.90
35894;DHT22;21994;48.204;16.516;2023-09-19T13:37:35;22.90;99.90
35894;DHT22;21994;48.204;16.516;2023-09-19T13:40:04;22.80;99.90
35894;DHT22;21994;48.204;16.516;2023-09-19T13:42:31;22.70;99.90
35894;DHT22;21994;48.204;16.516;2023-09-19T13:44:57;22.70;99.90
35894;DHT22;21994;48.204;16.516;2023-09-19T13:47:23;22.60;99.90
35894;DHT22;21994;48.204;16.516;2023-09-19T13:49:51;22.30;99.90
35894;DHT22;21994;48.204;16.516;2023-09-19T13:52:29;22.10;99.90
35894;DHT22;21994;48.204;16.516;2023-09-19T13:54:56;21.90;99.90
35894;DHT22;21994;48.204;16.516;2023-09-19T13:57:22;21.80;99.90
35894;DHT22;21994;48.204;16.516;2023-09-19T13:59:48;21.70;99.90
35894;DHT22;21994;48.204;16.516;2023-09-19T14:02:14;21.50;99.90
35894;DHT22;21994;48.204;16.516;2023-09-19T14:04:40;21.40;99.90
35894;DHT22;21994;48.204;16.516;2023-09-19T14:07:06;21.20;99.90
35894;DHT22;21994;48.204;16.516;2023-09-19T14:09:33;21.20;99.90
35894;DHT22;21994;48.204;16.516;2023-09-19T14:11:59;21.20;99.90
35894;DHT22;21994;48.204;16.516;2023-09-19T14:14:25;21.20;99.90
35894;DHT22;21994;48.204;16.516;2023-09-19T14:16:50;21.50;99.90
35894;DHT22;21994;48.204;16.516;2023-09-19T14:19:18;21.70;99.90
35894;DHT22;21994;48.204;16.516;2023-09-19T14:21:43;22.00;99.90
35894;DHT22;21994;48.204;16.516;2023-09-19T14:24:09;22.70;99.90
35894;DHT22;21994;48.204;16.516;2023-09-19T14:26:35;23.00;99.90
35894;DHT22;21994;48.204;16.516;2023-09-19T14:29:01;23.90;99.90
35894;DHT22;21994;48.204;16.516;2023-09-19T14:31:27;24.70;99.90
35894;DHT22;21994;48.204;16.516;2023-09-19T14:33:57;25.30;99.90
35894;DHT22;21994;48.204;16.516;2023-09-19T14:36:24;25.60;99.90
35894;DHT22;21994;48.204;16.516;2023-09-19T14:38:54;26.10;99.90
35894;DHT22;21994;48.204;16.516;2023-09-19T14:41:21;25.90;99.90
35894;DHT22;21994;48.204;16.516;2023-09-19T14:43:48;25.50;99.90
35894;DHT22;21994;48.204;16.516;2023-09-19T14:46:14;25.40;99.80
35894;DHT22;21994;48.204;16.516;2023-09-19T14:48:40;25.40;99.90
35894;DHT22;21994;48.204;16.516;2023-09-19T14:51:06;25.30;98.90
35894;DHT22;21994;48.204;16.516;2023-09-19T14:53:34;25.00;99.90
35894;DHT22;21994;48.204;16.516;2023-09-19T14:56:00;25.00;99.90
35894;DHT22;21994;48.204;16.516;2023-09-19T14:58:29;25.70;99.60
35894;DHT22;21994;48.204;16.516;2023-09-19T15:01:05;26.00;99.10
35894;DHT22;21994;48.204;16.516;2023-09-19T15:03:35;26.10;96.70
35894;DHT22;21994;48.204;16.516;2023-09-19T15:06:05;26.00;96.40
35894;DHT22;21994;48.204;16.516;2023-09-19T15:08:35;26.00;95.50
35894;DHT22;21994;48.204;16.516;2023-09-19T15:11:24;26.00;95.80
35894;DHT22;21994;48.204;16.516;2023-09-19T15:13:50;26.00;95.70
35894;DHT22;21994;48.204;16.516;2023-09-19T15:16:17;26.00;96.00
35894;DHT22;21994;48.204;16.516;2023-09-19T15:18:43;25.90;94.90
35894;DHT22;21994;48.204;16.516;2023-09-19T15:21:10;25.80;94.70
35894;DHT22;21994;48.204;16.516;2023-09-19T15:23:38;25.70;95.00
35894;DHT22;21994;48.204;16.516;2023-09-19T15:26:05;25.60;95.70
35894;DHT22;21994;48.204;16.516;2023-09-19T15:28:34;25.70;96.10
35894;DHT22;21994;48.204;16.516;2023-09-19T15:31:01;25.70;95.20
35894;DHT22;21994;48.204;16.516;2023-09-19T15:33:33;25.80;94.80
35894;DHT22;21994;48.204;16.516;2023-09-19T15:36:00;25.70;94.80
35894;DHT22;21994;48.204;16.516;2023-09-19T15:38:29;25.70;95.50
35894;DHT22;21994;48.204;16.516;2023-09-19T15:40:55;25.80;95.70
35894;DHT22;21994;48.204;16.516;2023-09-19T15:43:30;25.80;95.90
35894;DHT22;21994;48.204;16.516;2023-09-19T15:45:56;25.70;95.50
35894;DHT22;21994;48.204;16.516;2023-09-19T15:48:21;25.60;96.20
35894;DHT22;21994;48.204;16.516;2023-09-19T15:50:47;25.60;95.40
35894;DHT22;21994;48.204;16.516;2023-09-19T15:53:13;25.70;95.90
35894;DHT22;21994;48.204;16.516;2023-09-19T15:55:39;25.70;95.80
35894;DHT22;21994;48.204;16.516;2023-09-19T15:58:08;25.70;95.80
35894;DHT22;21994;48.204;16.516;2023-09-19T16:00:35;25.40;95.40
35894;DHT22;21994;48.204;16.516;2023-09-19T16:03:05;25.00;95.50
35894;DHT22;21994;48.204;16.516;2023-09-19T16:05:35;24.80;95.80
35894;DHT22;21994;48.204;16.516;2023-09-19T16:08:03;24.60;96.00
35894;DHT22;21994;48.204;16.516;2023-09-19T16:10:29;24.50;96.30
35894;DHT22;21994;48.204;16.516;2023-09-19T16:12:55;24.20;96.40
35894;DHT22;21994;48.204;16.516;2023-09-19T16:15:21;24.00;97.20
35894;DHT22;21994;48.204;16.516;2023-09-19T16:17:46;23.80;97.20
35894;DHT22;21994;48.204;16.516;2023-09-19T16:20:12;23.50;97.60
35894;DHT22;21994;48.204;16.516;2023-09-19T16:22:38;23.30;98.20
35894;DHT22;21994;48.204;16.516;2023-09-19T16:25:05;23.20;98.30
35894;DHT22;21994;48.204;16.516;2023-09-19T16:27:31;23.00;98.60
35894;DHT22;21994;48.204;16.516;2023-09-19T16:29:57;22.90;99.20
35894;DHT22;21994;48.204;16.516;2023-09-19T16:32:23;22.60;99.50